메인 페이지
METAR-TAF:

METAR-TAF

공항 :

Garden City, 캔자스, 미국

위도: 37-55-39N, 경도: 100-43-28W, 고도: 881m

현재 날씨관측

예보는 1 시간 2분 전, 20:54시(UTC)에 발표되었습니다.
15kt, 순간 최대 풍속 24kt
온도 13°C
습도 38%
기압 1021 hPa
시정: 16.1km
고도 5000ft 상공 구름 조금
고도 12000ft 상공 구름 보통

METAR: KGCK 192054Z 36015G24KT 10SM FEW050 SCT120 13/M01 A3014 RMK AO2 SLP204 T01331011 50000

시각: 16:56 (21:56 UTC)

예보

예보는 4 시간 36분 전, 17:20시(UTC)에 발표되었습니다.
예보 대상 시간: 19일 18시부터 20일 18시까지 (UTC)
16kt, 순간 최대 풍속 24kt
시정: 10km
고도 9000ft 상공 구름 많음
고도 11000ft 상공 흐림
20일 0000시부터 (UTC)
13kt
시정: 10km
고도 20000ft 상공 구름 보통
20일 0300시부터 (UTC)
7kt
시정: 10km
고도 25000ft 상공 구름 보통
20일 1500시부터 (UTC)
북서13kt
시정: 10km
맑음

TAF: KGCK 191720Z 1918/2018 35016G24KT P6SM BKN090 OVC110 FM200000 01013KT P6SM SCT200 FM200300 35007KT P6SM SCT250 FM201500 31013KT P6SM SKC

4,000개 이상의 공항 관측 자료 및 예보 (METAR 및 TAF 보고).

지도상에서 검색 가능한 기상관측소가 노란 점과 빨간 점으로 표시되어 있습니다.

기상관측소 명을 보려면 표시 위로 마우스를 이동하세요.

날씨 관측과 예보를 보려면 클릭하세요.

지도 변경 : 확대하려면 엑스 표시가 있는 녹색 버튼, 축소하려면 빼기 표시가 있는 녹색 버튼, 다음 페이지의 지도를 보려면 녹색 화살표를 클릭하세요.


METAR-TAF: